AMX338 MMMX-MMPR
Flight info
| Callsign | AMX338 |
|---|---|
| Flight time | 1h 1m |
| Altitude | 34000 |
| Route | SEBON3A SEBON UT124 GDL UJ14N NOTUP NOTUP1B |
| Aircraft | B38M/M-SDE1FGHILORVWXY/HB1 |
Departure
| Time | 2026-05-05 22:43 |
|---|---|
| Airport | Mexico City Benito Juárez International Airport (MMMX) |
Arrival
| Time | 2026-05-05 23:45 |
|---|---|
| Airport | Puerto Vallarta International Airport (MMPR) |
| Time | Latitude | Longitude | Altitude | Speed | Heading |
|---|---|---|---|---|---|
| 2026-05-05 22:14 | 19.42264 | -99.07963 | 7305 ft | 0 kts | 208° |
| 2026-05-05 22:14 | 19.42265 | -99.07963 | 7305 ft | 0 kts | 208° |
| 2026-05-05 22:27 | 19.42267 | -99.07962 | 7305 ft | 1 kts | 209° |
| 2026-05-05 22:27 | 19.42280 | -99.07951 | 7305 ft | 3 kts | 230° |
| 2026-05-05 22:28 | 19.42289 | -99.07934 | 7305 ft | 3 kts | 259° |
| 2026-05-05 22:28 | 19.42290 | -99.07913 | 7305 ft | 3 kts | 280° |
| 2026-05-05 22:28 | 19.42284 | -99.07893 | 7305 ft | 3 kts | 299° |
| 2026-05-05 22:28 | 19.42278 | -99.07884 | 7305 ft | 0 kts | 308° |
| 2026-05-05 22:33 | 19.42284 | -99.07891 | 7305 ft | 5 kts | 308° |
| 2026-05-05 22:33 | 19.42317 | -99.07935 | 7305 ft | 9 kts | 310° |
| 2026-05-05 22:33 | 19.42361 | -99.07988 | 7305 ft | 10 kts | 311° |
| 2026-05-05 22:33 | 19.42416 | -99.08033 | 7305 ft | 4 kts | 329° |
| 2026-05-05 22:34 | 19.42421 | -99.08036 | 7305 ft | 2 kts | 329° |
| 2026-05-05 22:34 | 19.42436 | -99.08045 | 7305 ft | 4 kts | 329° |
| 2026-05-05 22:34 | 19.42444 | -99.08050 | 7305 ft | 0 kts | 329° |
| 2026-05-05 22:35 | 19.42469 | -99.08066 | 7305 ft | 9 kts | 329° |
| 2026-05-05 22:35 | 19.42533 | -99.08106 | 7305 ft | 11 kts | 329° |
| 2026-05-05 22:35 | 19.42612 | -99.08148 | 7305 ft | 9 kts | 358° |
| 2026-05-05 22:35 | 19.42642 | -99.08127 | 7305 ft | 7 kts | 62° |
| 2026-05-05 22:36 | 19.42682 | -99.08051 | 7305 ft | 14 kts | 59° |
| 2026-05-05 22:36 | 19.42733 | -99.07960 | 7305 ft | 15 kts | 59° |
| 2026-05-05 22:36 | 19.42787 | -99.07863 | 7305 ft | 16 kts | 59° |
| 2026-05-05 22:36 | 19.42843 | -99.07762 | 7305 ft | 16 kts | 60° |
| 2026-05-05 22:37 | 19.42908 | -99.07639 | 7305 ft | 24 kts | 63° |
| 2026-05-05 22:37 | 19.42997 | -99.07478 | 7305 ft | 26 kts | 55° |
| 2026-05-05 22:37 | 19.43090 | -99.07311 | 7305 ft | 26 kts | 60° |
| 2026-05-05 22:37 | 19.43181 | -99.07145 | 7305 ft | 26 kts | 63° |
| 2026-05-05 22:38 | 19.43233 | -99.06993 | 7305 ft | 16 kts | 58° |
| 2026-05-05 22:38 | 19.43292 | -99.06890 | 7305 ft | 17 kts | 59° |
| 2026-05-05 22:38 | 19.43372 | -99.06800 | 7305 ft | 17 kts | 26° |
| 2026-05-05 22:38 | 19.43481 | -99.06741 | 7305 ft | 18 kts | 29° |
| 2026-05-05 22:39 | 19.43585 | -99.06668 | 7305 ft | 18 kts | 53° |
| 2026-05-05 22:39 | 19.43653 | -99.06551 | 7305 ft | 19 kts | 60° |
| 2026-05-05 22:39 | 19.43719 | -99.06429 | 7305 ft | 20 kts | 60° |
| 2026-05-05 22:39 | 19.43788 | -99.06302 | 7305 ft | 20 kts | 58° |
| 2026-05-05 22:40 | 19.43860 | -99.06171 | 7305 ft | 21 kts | 60° |
| 2026-05-05 22:40 | 19.43936 | -99.06038 | 7305 ft | 21 kts | 58° |
| 2026-05-05 22:40 | 19.44013 | -99.05901 | 7305 ft | 22 kts | 59° |
| 2026-05-05 22:40 | 19.44095 | -99.05753 | 7305 ft | 25 kts | 59° |
| 2026-05-05 22:41 | 19.44185 | -99.05593 | 7305 ft | 26 kts | 58° |
| 2026-05-05 22:41 | 19.44278 | -99.05430 | 7305 ft | 26 kts | 60° |
| 2026-05-05 22:41 | 19.44355 | -99.05326 | 7305 ft | 13 kts | 9° |
| 2026-05-05 22:41 | 19.44410 | -99.05348 | 7305 ft | 7 kts | 330° |
| 2026-05-05 22:42 | 19.44459 | -99.05378 | 7305 ft | 10 kts | 329° |
| 2026-05-05 22:42 | 19.44482 | -99.05417 | 7305 ft | 3 kts | 259° |
| 2026-05-05 22:42 | 19.44448 | -99.05470 | 7305 ft | 25 kts | 239° |
| 2026-05-05 22:42 | 19.44224 | -99.05868 | 7304 ft | 99 kts | 239° |
| 2026-05-05 22:43 | 19.43757 | -99.06700 | 7306 ft | 161 kts | 239° |
| 2026-05-05 22:43 | 19.43106 | -99.07847 | 7578 ft | 196 kts | 238° |
| 2026-05-05 22:43 | 19.42350 | -99.09165 | 8304 ft | 221 kts | 237° |
| 2026-05-05 22:43 | 19.41490 | -99.10601 | 9231 ft | 240 kts | 236° |
| 2026-05-05 22:44 | 19.40557 | -99.12127 | 9598 ft | 257 kts | 237° |
| 2026-05-05 22:44 | 19.39704 | -99.13825 | 10495 ft | 259 kts | 243° |
| 2026-05-05 22:44 | 19.38877 | -99.15532 | 11404 ft | 264 kts | 242° |
| 2026-05-05 22:44 | 19.37994 | -99.17263 | 12200 ft | 270 kts | 242° |
| 2026-05-05 22:45 | 19.37273 | -99.19103 | 13027 ft | 273 kts | 262° |
| 2026-05-05 22:45 | 19.37379 | -99.21095 | 13874 ft | 274 kts | 290° |
| 2026-05-05 22:45 | 19.37917 | -99.22303 | 14331 ft | 275 kts | 307° |
| 2026-05-05 22:45 | 19.39258 | -99.23735 | 15124 ft | 275 kts | 323° |
| 2026-05-05 22:46 | 19.40758 | -99.25032 | 15858 ft | 281 kts | 322° |
| 2026-05-05 22:46 | 19.42783 | -99.26771 | 16870 ft | 285 kts | 323° |
| 2026-05-05 22:46 | 19.44339 | -99.28092 | 17633 ft | 288 kts | 323° |
| 2026-05-05 22:46 | 19.45906 | -99.29454 | 18270 ft | 297 kts | 317° |
| 2026-05-05 22:47 | 19.47126 | -99.31303 | 18538 ft | 319 kts | 293° |
| 2026-05-05 22:47 | 19.47507 | -99.32860 | 18767 ft | 331 kts | 276° |
| 2026-05-05 22:47 | 19.47292 | -99.35322 | 19255 ft | 345 kts | 253° |
| 2026-05-05 22:47 | 19.46392 | -99.37723 | 19805 ft | 354 kts | 250° |
| 2026-05-05 22:48 | 19.45505 | -99.40160 | 20546 ft | 356 kts | 250° |
| 2026-05-05 22:48 | 19.44623 | -99.42600 | 21197 ft | 361 kts | 250° |
| 2026-05-05 22:48 | 19.43723 | -99.45096 | 21783 ft | 367 kts | 250° |
| 2026-05-05 22:48 | 19.42808 | -99.47628 | 22029 ft | 367 kts | 249° |
| 2026-05-05 22:49 | 19.41895 | -99.50157 | 22247 ft | 367 kts | 249° |
| 2026-05-05 22:49 | 19.40982 | -99.52682 | 22374 ft | 368 kts | 249° |
| 2026-05-05 22:49 | 19.40066 | -99.55216 | 22383 ft | 368 kts | 249° |
| 2026-05-05 22:49 | 19.39148 | -99.57752 | 22372 ft | 368 kts | 249° |
| 2026-05-05 22:50 | 19.38323 | -99.60341 | 22416 ft | 377 kts | 261° |
| 2026-05-05 22:50 | 19.38108 | -99.63125 | 22867 ft | 382 kts | 267° |
| 2026-05-05 22:50 | 19.37912 | -99.65958 | 23344 ft | 388 kts | 266° |
| 2026-05-05 22:50 | 19.37721 | -99.68812 | 23873 ft | 391 kts | 266° |
| 2026-05-05 22:51 | 19.37536 | -99.71712 | 24132 ft | 397 kts | 266° |
| 2026-05-05 22:51 | 19.37354 | -99.74622 | 24185 ft | 396 kts | 266° |
| 2026-05-05 22:51 | 19.37174 | -99.77530 | 24158 ft | 395 kts | 266° |
| 2026-05-05 22:51 | 19.36993 | -99.80435 | 24101 ft | 394 kts | 266° |
| 2026-05-05 22:52 | 19.36810 | -99.83345 | 24301 ft | 397 kts | 266° |
| 2026-05-05 22:52 | 19.36626 | -99.86263 | 24810 ft | 398 kts | 266° |
| 2026-05-05 22:52 | 19.36442 | -99.89190 | 25261 ft | 400 kts | 266° |
| 2026-05-05 22:52 | 19.36256 | -99.92136 | 25690 ft | 403 kts | 266° |
| 2026-05-05 22:53 | 19.36070 | -99.95069 | 26109 ft | 405 kts | 266° |
| 2026-05-05 22:53 | 19.35880 | -99.98049 | 26583 ft | 407 kts | 266° |
| 2026-05-05 22:53 | 19.35689 | -100.01051 | 27040 ft | 410 kts | 266° |
| 2026-05-05 22:53 | 19.35496 | -100.04079 | 27485 ft | 413 kts | 266° |
| 2026-05-05 22:54 | 19.35302 | -100.07116 | 27930 ft | 415 kts | 266° |
| 2026-05-05 22:54 | 19.35106 | -100.10178 | 28370 ft | 417 kts | 266° |
| 2026-05-05 22:54 | 19.35159 | -100.13251 | 28781 ft | 420 kts | 280° |
| 2026-05-05 22:54 | 19.35963 | -100.16220 | 29227 ft | 421 kts | 289° |
| 2026-05-05 22:55 | 19.36895 | -100.19178 | 29601 ft | 425 kts | 288° |
| 2026-05-05 22:55 | 19.37845 | -100.22151 | 29985 ft | 427 kts | 289° |
| 2026-05-05 22:55 | 19.38814 | -100.25131 | 30348 ft | 429 kts | 289° |
| 2026-05-05 22:55 | 19.39797 | -100.28124 | 30716 ft | 431 kts | 289° |
| 2026-05-05 22:56 | 19.40786 | -100.31126 | 31081 ft | 432 kts | 289° |
| 2026-05-05 22:56 | 19.41780 | -100.34142 | 31441 ft | 435 kts | 290° |
| 2026-05-05 22:56 | 19.42778 | -100.37172 | 31786 ft | 437 kts | 290° |
| 2026-05-05 22:56 | 19.43767 | -100.40176 | 32173 ft | 437 kts | 290° |
| 2026-05-05 22:57 | 19.44768 | -100.43215 | 32652 ft | 436 kts | 290° |
| 2026-05-05 22:57 | 19.45763 | -100.46239 | 33139 ft | 434 kts | 290° |
| 2026-05-05 22:57 | 19.46755 | -100.49259 | 33604 ft | 434 kts | 290° |
| 2026-05-05 22:57 | 19.47747 | -100.52279 | 33751 ft | 433 kts | 290° |
| 2026-05-05 22:58 | 19.48731 | -100.55278 | 33751 ft | 430 kts | 290° |
| 2026-05-05 22:58 | 19.50690 | -100.61248 | 33748 ft | 428 kts | 290° |
| 2026-05-05 22:59 | 19.52646 | -100.67220 | 33744 ft | 428 kts | 290° |
| 2026-05-05 22:59 | 19.54613 | -100.73183 | 33745 ft | 428 kts | 291° |
| 2026-05-05 23:00 | 19.57269 | -100.80947 | 33777 ft | 428 kts | 291° |
| 2026-05-05 23:00 | 19.59290 | -100.86881 | 33853 ft | 428 kts | 291° |
| 2026-05-05 23:01 | 19.61297 | -100.92781 | 33921 ft | 428 kts | 291° |
| 2026-05-05 23:01 | 19.63314 | -100.98716 | 33978 ft | 427 kts | 291° |
| 2026-05-05 23:02 | 19.65327 | -101.04650 | 34021 ft | 427 kts | 291° |
| 2026-05-05 23:02 | 19.67334 | -101.10574 | 34028 ft | 427 kts | 290° |
| 2026-05-05 23:03 | 19.69343 | -101.16508 | 34007 ft | 427 kts | 291° |
| 2026-05-05 23:03 | 19.71347 | -101.22434 | 33974 ft | 426 kts | 290° |
| 2026-05-05 23:04 | 19.73348 | -101.28359 | 33922 ft | 427 kts | 290° |
| 2026-05-05 23:04 | 19.75350 | -101.34284 | 33870 ft | 425 kts | 287° |
| 2026-05-05 23:05 | 19.77325 | -101.40157 | 33797 ft | 425 kts | 287° |
| 2026-05-05 23:05 | 19.79314 | -101.46071 | 33800 ft | 425 kts | 287° |
| 2026-05-05 23:06 | 19.81302 | -101.51987 | 33805 ft | 425 kts | 287° |
| 2026-05-05 23:06 | 19.83291 | -101.57912 | 33805 ft | 425 kts | 287° |
| 2026-05-05 23:07 | 19.85275 | -101.63831 | 33809 ft | 425 kts | 287° |
| 2026-05-05 23:07 | 19.87259 | -101.69756 | 33813 ft | 426 kts | 287° |
| 2026-05-05 23:08 | 19.89241 | -101.75683 | 33818 ft | 425 kts | 287° |
| 2026-05-05 23:08 | 19.91218 | -101.81603 | 33814 ft | 425 kts | 287° |
| 2026-05-05 23:09 | 19.93193 | -101.87523 | 33809 ft | 425 kts | 287° |
| 2026-05-05 23:09 | 19.95150 | -101.93399 | 33808 ft | 425 kts | 287° |
| 2026-05-05 23:10 | 19.97121 | -101.99324 | 33800 ft | 424 kts | 287° |
| 2026-05-05 23:10 | 19.99089 | -102.05246 | 33800 ft | 424 kts | 286° |
| 2026-05-05 23:11 | 20.01053 | -102.11163 | 33792 ft | 424 kts | 286° |
| 2026-05-05 23:11 | 20.03013 | -102.17074 | 33799 ft | 424 kts | 286° |
| 2026-05-05 23:12 | 20.04970 | -102.22986 | 33791 ft | 423 kts | 286° |
| 2026-05-05 23:12 | 20.06920 | -102.28883 | 33795 ft | 423 kts | 286° |
| 2026-05-05 23:13 | 20.08854 | -102.34741 | 33796 ft | 422 kts | 286° |
| 2026-05-05 23:13 | 20.10801 | -102.40642 | 33791 ft | 422 kts | 286° |
| 2026-05-05 23:14 | 20.12743 | -102.46538 | 33787 ft | 422 kts | 286° |
| 2026-05-05 23:14 | 20.14680 | -102.52423 | 33791 ft | 421 kts | 286° |
| 2026-05-05 23:15 | 20.16616 | -102.58314 | 33793 ft | 421 kts | 286° |
| 2026-05-05 23:15 | 20.18550 | -102.64205 | 33797 ft | 421 kts | 286° |
| 2026-05-05 23:16 | 20.20649 | -102.70031 | 33785 ft | 424 kts | 296° |
| 2026-05-05 23:16 | 20.23529 | -102.75525 | 33780 ft | 425 kts | 295° |
| 2026-05-05 23:17 | 20.26377 | -102.81008 | 33789 ft | 425 kts | 295° |
| 2026-05-05 23:17 | 20.29246 | -102.86527 | 33792 ft | 425 kts | 295° |
| 2026-05-05 23:18 | 20.32106 | -102.92035 | 33794 ft | 425 kts | 295° |
| 2026-05-05 23:18 | 20.34966 | -102.97550 | 33790 ft | 425 kts | 295° |
| 2026-05-05 23:19 | 20.37825 | -103.03065 | 33862 ft | 424 kts | 295° |
| 2026-05-05 23:19 | 20.40678 | -103.08576 | 33937 ft | 424 kts | 295° |
| 2026-05-05 23:20 | 20.43528 | -103.14086 | 34009 ft | 424 kts | 295° |
| 2026-05-05 23:20 | 20.46378 | -103.19603 | 34084 ft | 424 kts | 296° |
| 2026-05-05 23:21 | 20.49198 | -103.25063 | 34067 ft | 416 kts | 295° |
| 2026-05-05 23:21 | 20.50573 | -103.27728 | 33902 ft | 405 kts | 295° |
| 2026-05-05 23:21 | 20.51914 | -103.30331 | 33650 ft | 397 kts | 294° |
| 2026-05-05 23:22 | 20.52993 | -103.33015 | 33105 ft | 392 kts | 287° |
| 2026-05-05 23:22 | 20.53956 | -103.35736 | 32599 ft | 392 kts | 287° |
| 2026-05-05 23:22 | 20.54942 | -103.38501 | 32143 ft | 404 kts | 287° |
| 2026-05-05 23:22 | 20.55896 | -103.41189 | 31746 ft | 417 kts | 287° |
| 2026-05-05 23:23 | 20.56902 | -103.44028 | 31370 ft | 426 kts | 287° |
| 2026-05-05 23:23 | 20.57950 | -103.46988 | 30933 ft | 429 kts | 287° |
| 2026-05-05 23:23 | 20.59007 | -103.49977 | 30502 ft | 430 kts | 287° |
| 2026-05-05 23:23 | 20.60059 | -103.52955 | 30073 ft | 426 kts | 287° |
| 2026-05-05 23:24 | 20.61101 | -103.55903 | 29563 ft | 421 kts | 287° |
| 2026-05-05 23:24 | 20.62129 | -103.58816 | 29070 ft | 417 kts | 287° |
| 2026-05-05 23:24 | 20.63145 | -103.61696 | 28564 ft | 413 kts | 287° |
| 2026-05-05 23:24 | 20.64139 | -103.64516 | 28080 ft | 409 kts | 287° |
| 2026-05-05 23:25 | 20.65139 | -103.67354 | 27605 ft | 406 kts | 287° |
| 2026-05-05 23:25 | 20.66130 | -103.70168 | 27163 ft | 404 kts | 287° |
| 2026-05-05 23:25 | 20.67112 | -103.72960 | 26725 ft | 401 kts | 287° |
| 2026-05-05 23:25 | 20.68091 | -103.75742 | 26284 ft | 399 kts | 287° |
| 2026-05-05 23:26 | 20.69063 | -103.78506 | 25867 ft | 397 kts | 287° |
| 2026-05-05 23:26 | 20.70030 | -103.81259 | 25448 ft | 395 kts | 287° |
| 2026-05-05 23:26 | 20.70992 | -103.83995 | 25032 ft | 393 kts | 287° |
| 2026-05-05 23:26 | 20.71952 | -103.86729 | 24632 ft | 392 kts | 287° |
| 2026-05-05 23:27 | 20.72906 | -103.89449 | 24223 ft | 391 kts | 287° |
| 2026-05-05 23:27 | 20.73860 | -103.92169 | 23818 ft | 390 kts | 287° |
| 2026-05-05 23:27 | 20.74810 | -103.94877 | 23427 ft | 389 kts | 287° |
| 2026-05-05 23:27 | 20.75755 | -103.97576 | 22961 ft | 388 kts | 287° |
| 2026-05-05 23:28 | 20.76698 | -104.00270 | 22499 ft | 387 kts | 287° |
| 2026-05-05 23:28 | 20.77641 | -104.02964 | 22035 ft | 386 kts | 287° |
| 2026-05-05 23:28 | 20.78577 | -104.05640 | 21591 ft | 384 kts | 287° |
| 2026-05-05 23:28 | 20.79510 | -104.08311 | 21153 ft | 383 kts | 287° |
| 2026-05-05 23:29 | 20.80429 | -104.10940 | 20721 ft | 382 kts | 287° |
| 2026-05-05 23:29 | 20.81357 | -104.13598 | 20302 ft | 380 kts | 287° |
| 2026-05-05 23:29 | 20.82282 | -104.16247 | 19876 ft | 379 kts | 287° |
| 2026-05-05 23:29 | 20.83201 | -104.18885 | 19458 ft | 378 kts | 287° |
| 2026-05-05 23:30 | 20.84119 | -104.21515 | 19053 ft | 377 kts | 287° |
| 2026-05-05 23:30 | 20.84719 | -104.23252 | 18788 ft | 375 kts | 285° |
| 2026-05-05 23:30 | 20.85076 | -104.26865 | 18253 ft | 363 kts | 259° |
| 2026-05-05 23:30 | 20.84631 | -104.29485 | 18121 ft | 355 kts | 258° |
| 2026-05-05 23:31 | 20.84225 | -104.32088 | 18013 ft | 355 kts | 258° |
| 2026-05-05 23:31 | 20.83811 | -104.34684 | 17956 ft | 354 kts | 257° |
| 2026-05-05 23:31 | 20.83394 | -104.37281 | 17757 ft | 355 kts | 257° |
| 2026-05-05 23:31 | 20.82976 | -104.39869 | 17390 ft | 353 kts | 258° |
| 2026-05-05 23:32 | 20.82559 | -104.42452 | 16992 ft | 351 kts | 257° |
| 2026-05-05 23:32 | 20.82193 | -104.45018 | 16602 ft | 350 kts | 265° |
| 2026-05-05 23:32 | 20.82401 | -104.47613 | 16233 ft | 350 kts | 274° |
| 2026-05-05 23:32 | 20.82687 | -104.50166 | 15832 ft | 340 kts | 274° |
| 2026-05-05 23:33 | 20.82957 | -104.52637 | 15458 ft | 329 kts | 274° |
| 2026-05-05 23:33 | 20.83217 | -104.55027 | 15080 ft | 318 kts | 274° |
| 2026-05-05 23:33 | 20.83470 | -104.57350 | 14706 ft | 311 kts | 274° |
| 2026-05-05 23:33 | 20.83718 | -104.59634 | 14275 ft | 308 kts | 274° |
| 2026-05-05 23:34 | 20.83967 | -104.61932 | 13835 ft | 312 kts | 274° |
| 2026-05-05 23:34 | 20.84217 | -104.64231 | 13340 ft | 309 kts | 274° |
| 2026-05-05 23:34 | 20.84463 | -104.66490 | 12864 ft | 303 kts | 274° |
| 2026-05-05 23:34 | 20.84698 | -104.68674 | 12382 ft | 297 kts | 274° |
| 2026-05-05 23:35 | 20.84933 | -104.70855 | 11918 ft | 293 kts | 275° |
| 2026-05-05 23:35 | 20.85166 | -104.73006 | 11452 ft | 289 kts | 275° |
| 2026-05-05 23:35 | 20.85396 | -104.75140 | 11005 ft | 288 kts | 275° |
| 2026-05-05 23:35 | 20.85625 | -104.77260 | 10563 ft | 286 kts | 276° |
| 2026-05-05 23:36 | 20.85852 | -104.79361 | 10115 ft | 283 kts | 276° |
| 2026-05-05 23:36 | 20.86074 | -104.81435 | 9674 ft | 279 kts | 276° |
| 2026-05-05 23:36 | 20.86221 | -104.82799 | 9353 ft | 278 kts | 276° |
| 2026-05-05 23:36 | 20.86441 | -104.84848 | 8799 ft | 277 kts | 276° |
| 2026-05-05 23:37 | 20.86660 | -104.86901 | 8206 ft | 278 kts | 276° |
| 2026-05-05 23:37 | 20.86881 | -104.88960 | 7638 ft | 278 kts | 276° |
| 2026-05-05 23:37 | 20.87171 | -104.91674 | 6897 ft | 277 kts | 276° |
| 2026-05-05 23:37 | 20.87318 | -104.93057 | 6506 ft | 277 kts | 276° |
| 2026-05-05 23:38 | 20.87537 | -104.95091 | 5910 ft | 275 kts | 276° |
| 2026-05-05 23:38 | 20.87752 | -104.97115 | 5396 ft | 273 kts | 276° |
| 2026-05-05 23:38 | 20.87963 | -104.99105 | 5091 ft | 263 kts | 277° |
| 2026-05-05 23:38 | 20.88136 | -105.00987 | 4864 ft | 252 kts | 270° |
| 2026-05-05 23:39 | 20.87690 | -105.02713 | 4625 ft | 240 kts | 238° |
| 2026-05-05 23:39 | 20.86627 | -105.04027 | 4413 ft | 229 kts | 228° |
| 2026-05-05 23:39 | 20.85569 | -105.05250 | 4175 ft | 220 kts | 228° |
| 2026-05-05 23:39 | 20.84547 | -105.06430 | 3930 ft | 213 kts | 228° |
| 2026-05-05 23:40 | 20.83556 | -105.07572 | 3692 ft | 205 kts | 228° |
| 2026-05-05 23:40 | 20.82606 | -105.08664 | 3486 ft | 198 kts | 228° |
| 2026-05-05 23:40 | 20.81677 | -105.09732 | 3250 ft | 194 kts | 228° |
| 2026-05-05 23:40 | 20.80762 | -105.10782 | 3004 ft | 192 kts | 227° |
| 2026-05-05 23:41 | 20.79850 | -105.11829 | 2757 ft | 191 kts | 228° |
| 2026-05-05 23:41 | 20.78952 | -105.12857 | 2518 ft | 188 kts | 228° |
| 2026-05-05 23:41 | 20.78070 | -105.13869 | 2306 ft | 184 kts | 228° |
| 2026-05-05 23:41 | 20.77210 | -105.14857 | 2096 ft | 175 kts | 229° |
| 2026-05-05 23:42 | 20.76418 | -105.15764 | 1878 ft | 161 kts | 228° |
| 2026-05-05 23:42 | 20.75660 | -105.16635 | 1730 ft | 159 kts | 229° |
| 2026-05-05 23:42 | 20.74941 | -105.17462 | 1660 ft | 148 kts | 228° |
| 2026-05-05 23:42 | 20.74239 | -105.18266 | 1528 ft | 146 kts | 229° |
| 2026-05-05 23:43 | 20.73552 | -105.19055 | 1348 ft | 144 kts | 229° |
| 2026-05-05 23:43 | 20.72871 | -105.19839 | 1169 ft | 143 kts | 227° |
| 2026-05-05 23:43 | 20.72192 | -105.20617 | 963 ft | 143 kts | 230° |
| 2026-05-05 23:43 | 20.71525 | -105.21385 | 807 ft | 142 kts | 227° |
| 2026-05-05 23:44 | 20.70853 | -105.22159 | 612 ft | 142 kts | 227° |
| 2026-05-05 23:44 | 20.70184 | -105.22923 | 398 ft | 139 kts | 227° |
| 2026-05-05 23:44 | 20.69526 | -105.23675 | 257 ft | 139 kts | 228° |
| 2026-05-05 23:44 | 20.68868 | -105.24424 | 50 ft | 136 kts | 227° |
| 2026-05-05 23:45 | 20.68322 | -105.25058 | 31 ft | 82 kts | 227° |
| 2026-05-05 23:45 | 20.68086 | -105.25330 | 32 ft | 20 kts | 225° |
| 2026-05-05 23:45 | 20.68038 | -105.25344 | 32 ft | 6 kts | 160° |
| 2026-05-05 23:45 | 20.68000 | -105.25308 | 31 ft | 9 kts | 135° |
| 2026-05-05 23:46 | 20.67968 | -105.25275 | 31 ft | 7 kts | 137° |
| 2026-05-05 23:46 | 20.67955 | -105.25222 | 31 ft | 9 kts | 66° |
| 2026-05-05 23:46 | 20.67996 | -105.25174 | 31 ft | 10 kts | 47° |
| 2026-05-05 23:46 | 20.68045 | -105.25117 | 31 ft | 9 kts | 47° |
| 2026-05-05 23:47 | 20.68093 | -105.25059 | 31 ft | 12 kts | 60° |
| 2026-05-05 23:47 | 20.68093 | -105.25032 | 31 ft | 2 kts | 133° |
| 2026-05-05 23:47 | 20.68030 | -105.24975 | 31 ft | 16 kts | 138° |
| 2026-05-05 23:47 | 20.67981 | -105.24910 | 31 ft | 10 kts | 98° |
| 2026-05-05 23:48 | 20.67978 | -105.24827 | 31 ft | 12 kts | 118° |
| 2026-05-05 23:48 | 20.67926 | -105.24769 | 31 ft | 9 kts | 141° |
| 2026-05-05 23:48 | 20.67915 | -105.24746 | 31 ft | 1 kts | 76° |
| 2026-05-05 23:48 | 20.67919 | -105.24739 | 31 ft | 3 kts | 57° |
| 2026-05-05 23:49 | 20.67935 | -105.24715 | 31 ft | 3 kts | 46° |
| 2026-05-05 23:49 | 20.67946 | -105.24703 | 31 ft | 2 kts | 48° |
| 2026-05-05 23:49 | 20.67951 | -105.24698 | 31 ft | 0 kts | 46° |